Time;durP1;ratioP1;P1;durP2;ratioP2;P2;SDS_P1;SDS_P2;PMS_P1;PMS_P2;Temp;Humidity;BMP_temperature;BMP_pressure;BME280_temperature;BME280_humidity;BME280_pressure;Samples;Min_cycle;Max_cycle;Signal;HPM_P1;HPM_P2
2024/01/06 00:02:14;;;;;;;38.15;25.40;;;;;;;8.61;61.57;98963.22;4445706;32;20559;-71
2024/01/06 00:04:43;;;;;;;33.45;23.33;;;;;;;8.43;62.06;98962.81;4452208;32;20710;-71
2024/01/06 00:07:13;;;;;;;34.08;24.83;;;;;;;8.47;62.03;98963.41;4452007;32;20156;-72
2024/01/06 00:09:44;;;;;;;32.72;23.95;;;;;;;8.51;61.67;98956.94;4452018;32;20152;-71
2024/01/06 00:12:13;;;;;;;30.98;24.80;;;;;;;8.44;61.90;98947.84;4446099;32;20159;-72
2024/01/06 00:14:45;;;;;;;32.05;22.08;;;;;;;8.31;62.10;98948.69;4452011;32;20167;-71
2024/01/06 00:17:14;;;;;;;28.83;23.15;;;;;;;8.28;62.18;98945.47;4451887;32;20151;-71
2024/01/06 00:19:44;;;;;;;31.65;23.77;;;;;;;8.26;62.25;98936.81;4452011;32;20164;-71
2024/01/06 00:22:13;;;;;;;39.08;24.30;;;;;;;8.21;62.29;98939.81;4445740;32;20230;-71
2024/01/06 00:24:43;;;;;;;31.60;22.65;;;;;;;8.28;61.66;98935.75;4451929;32;20528;-71
2024/01/06 00:27:13;;;;;;;31.35;24.67;;;;;;;8.27;61.71;98938.50;4452307;32;20160;-71
2024/01/06 00:29:43;;;;;;;36.20;24.00;;;;;;;8.13;61.90;98935.09;4451918;32;20448;-71
2024/01/06 00:32:12;;;;;;;31.52;22.13;;;;;;;8.06;62.07;98951.50;4445331;32;20179;-71
2024/01/06 00:34:42;;;;;;;25.25;19.98;;;;;;;8.24;61.14;98939.56;4451929;32;20153;-71
2024/01/06 00:37:11;;;;;;;31.17;20.75;;;;;;;7.75;62.49;98937.06;4451871;32;20434;-71
2024/01/06 00:39:40;;;;;;;38.15;22.27;;;;;;;7.61;62.66;98933.66;4451789;32;20151;-71
2024/01/06 00:42:10;;;;;;;32.90;21.48;;;;;;;7.64;62.30;98933.44;4445983;32;20487;-71
2024/01/06 00:44:39;;;;;;;32.70;21.45;;;;;;;7.59;62.77;98921.53;4451793;32;20183;-71
2024/01/06 00:47:09;;;;;;;30.50;20.92;;;;;;;7.34;63.11;98927.72;4451691;32;20152;-71
2024/01/06 00:49:38;;;;;;;36.10;22.52;;;;;;;7.33;63.34;98936.59;4451699;32;20441;-71
2024/01/06 00:52:07;;;;;;;31.35;22.92;;;;;;;7.32;63.68;98922.56;4445506;32;20168;-71
2024/01/06 00:54:36;;;;;;;29.63;21.05;;;;;;;7.72;62.56;98922.34;4451239;32;20167;-71
2024/01/06 00:57:06;;;;;;;33.10;20.15;;;;;;;7.59;62.76;98919.72;4452062;32;20164;-71
2024/01/06 00:59:36;;;;;;;30.37;22.85;;;;;;;7.79;62.34;98923.53;4451961;32;20164;-71
2024/01/06 01:02:05;;;;;;;26.90;20.88;;;;;;;7.54;63.14;98932.41;4445228;32;20164;-71
2024/01/06 01:04:35;;;;;;;27.37;18.60;;;;;;;7.49;63.30;98928.44;4451919;32;20152;-72
2024/01/06 01:07:04;;;;;;;30.17;22.95;;;;;;;7.68;62.88;98931.44;4451789;32;20540;-71
2024/01/06 01:09:33;;;;;;;27.35;21.25;;;;;;;7.91;62.05;98923.59;4451985;32;20160;-71
2024/01/06 01:12:02;;;;;;;31.90;23.40;;;;;;;7.92;62.03;98920.88;4445706;32;20160;-71
2024/01/06 01:14:32;;;;;;;38.63;23.38;;;;;;;7.80;62.58;98917.34;4451733;32;20168;-71
2024/01/06 01:17:04;;;;;;;29.98;21.87;;;;;;;6.87;65.42;98924.03;4451552;32;20152;-71
2024/01/06 01:19:33;;;;;;;34.90;24.17;;;;;;;7.80;63.11;98919.97;4451802;32;20151;-71
2024/01/06 01:22:03;;;;;;;32.17;23.98;;;;;;;7.92;62.67;98930.56;4445241;32;20171;-71
2024/01/06 01:24:32;;;;;;;33.10;23.20;;;;;;;7.67;63.57;98916.53;4451596;32;20149;-71
2024/01/06 01:27:02;;;;;;;34.90;24.20;;;;;;;7.64;63.69;98925.53;4452140;32;20198;-71
2024/01/06 01:29:31;;;;;;;31.10;23.67;;;;;;;7.77;63.51;98922.84;4455336;32;20475;-71
2024/01/06 01:32:01;;;;;;;32.13;23.83;;;;;;;8.08;62.65;98915.31;4447765;32;20188;-71
2024/01/06 01:34:32;;;;;;;35.15;24.90;;;;;;;7.81;63.70;98913.75;4455803;32;20152;-72
2024/01/06 01:37:02;;;;;;;33.10;23.98;;;;;;;7.49;64.88;98912.63;4454614;32;20170;-71
2024/01/06 01:39:31;;;;;;;27.70;21.95;;;;;;;7.71;64.27;98912.72;4454862;32;20156;-71
2024/01/06 01:42:00;;;;;;;34.95;24.23;;;;;;;7.43;65.09;98913.88;4446345;32;20200;-71
2024/01/06 01:44:30;;;;;;;34.38;24.87;;;;;;;7.33;65.56;98903.19;4451674;32;20176;-71
2024/01/06 01:46:59;;;;;;;36.22;26.23;;;;;;;7.22;66.31;98903.09;4451429;32;20163;-71
2024/01/06 01:49:29;;;;;;;36.42;25.37;;;;;;;7.51;65.49;98898.34;4451542;32;20160;-71
2024/01/06 01:52:00;;;;;;;34.53;24.08;;;;;;;8.04;63.78;98890.09;4445206;32;20550;-71
2024/01/06 01:54:34;;;;;;;34.97;24.70;;;;;;;7.68;65.03;98891.00;4452215;32;20152;-71
2024/01/06 01:57:04;;;;;;;31.25;23.80;;;;;;;7.50;65.51;98888.78;4454239;32;20156;-71
2024/01/06 01:59:34;;;;;;;34.25;24.83;;;;;;;7.43;65.95;98882.25;4454449;32;20140;-71
2024/01/06 02:02:04;;;;;;;36.70;25.02;;;;;;;7.15;66.66;98886.88;4446900;32;20168;-71
2024/01/06 02:04:34;;;;;;;29.67;21.80;;;;;;;7.60;65.66;98891.56;4454637;32;20532;-72
2024/01/06 02:07:05;;;;;;;39.00;23.10;;;;;;;8.02;64.07;98884.91;4454881;32;20152;-71
2024/01/06 02:09:34;;;;;;;27.08;21.20;;;;;;;7.53;65.68;98882.44;4452166;32;20163;-71
2024/01/06 02:12:04;;;;;;;31.73;22.77;;;;;;;7.60;65.60;98883.66;4447365;32;20176;-71
2024/01/06 02:14:34;;;;;;;35.22;24.30;;;;;;;7.83;65.19;98884.59;4455175;32;20160;-71
2024/01/06 02:17:04;;;;;;;33.10;24.23;;;;;;;7.81;64.91;98875.97;4453692;32;20528;-71
2024/01/06 02:19:33;;;;;;;36.17;25.23;;;;;;;8.00;64.51;98876.31;4454454;32;20163;-71
2024/01/06 02:22:10;;;;;;;35.13;25.17;;;;;;;8.10;64.13;98874.63;4448313;32;20568;-71
2024/01/06 02:24:40;;;;;;;35.90;24.55;;;;;;;8.19;63.99;98872.25;4453012;32;20136;-71
2024/01/06 02:27:09;;;;;;;34.05;23.80;;;;;;;7.72;65.75;98869.59;4455493;32;20148;-71
2024/01/06 02:29:38;;;;;;;30.48;22.67;;;;;;;7.54;66.36;98858.59;4452456;32;20160;-71
2024/01/06 02:32:08;;;;;;;30.58;24.08;;;;;;;8.20;64.48;98863.41;4444853;32;20163;-71
2024/01/06 02:34:40;;;;;;;29.35;22.00;;;;;;;8.02;65.08;98858.53;4451031;32;20176;-71
2024/01/06 02:37:10;;;;;;;;;;;;;;;7.78;65.67;98863.03;4451382;32;20157;-71
2024/01/06 02:39:40;;;;;;;28.15;22.40;;;;;;;7.87;65.69;98859.69;4451079;32;20027;-71
2024/01/06 02:42:09;;;;;;;30.95;23.40;;;;;;;7.45;67.30;98861.09;4445202;32;20451;-71
2024/01/06 02:44:38;;;;;;;33.90;24.30;;;;;;;7.74;66.39;98853.66;4450984;32;20156;-71
2024/01/06 02:47:07;;;;;;;34.63;23.62;;;;;;;7.81;66.22;98849.63;4451091;32;20163;-71
2024/01/06 02:49:37;;;;;;;32.08;25.80;;;;;;;7.81;66.02;98854.88;4450970;32;20144;-72
2024/01/06 02:52:06;;;;;;;31.52;24.25;;;;;;;7.50;66.76;98849.25;4444584;32;20224;-71
2024/01/06 02:54:38;;;;;;;32.90;23.25;;;;;;;7.81;66.01;98850.44;4451024;32;20156;-71
2024/01/06 02:57:07;;;;;;;34.30;23.58;;;;;;;7.81;66.11;98839.06;4453836;32;20152;-71
2024/01/06 02:59:36;;;;;;;37.22;22.33;;;;;;;8.14;64.74;98838.31;4453834;32;20179;-72
2024/01/06 03:02:09;;;;;;;30.70;23.27;;;;;;;8.12;64.75;98829.69;4448572;32;20446;-71
2024/01/06 03:04:38;;;;;;;;;;;;;;;8.24;64.56;98826.09;4455428;32;20504;-71
2024/01/06 03:07:08;;;;;;;36.08;23.77;;;;;;;8.03;65.29;98831.19;4437972;32;20028;-71
2024/01/06 03:09:39;;;;;;;38.10;22.45;;;;;;;7.98;65.38;98824.59;4450700;32;20168;-71
2024/01/06 03:12:09;;;;;;;33.38;23.45;;;;;;;7.87;66.02;98809.59;4444849;32;20163;-71
2024/01/06 03:14:38;;;;;;;32.53;23.42;;;;;;;8.06;65.31;98809.88;4451121;32;20190;-71
2024/01/06 03:17:12;;;;;;;30.92;22.52;;;;;;;8.19;65.06;98801.00;4456188;32;20171;-71
2024/01/06 03:19:41;;;;;;;31.77;22.80;;;;;;;7.77;66.38;98805.97;4458741;32;20159;-71
2024/01/06 03:22:10;;;;;;;28.77;21.98;;;;;;;7.76;66.56;98794.59;4449469;32;20179;-71
2024/01/06 03:24:41;;;;;;;30.90;22.92;;;;;;;7.90;66.19;98790.91;4455677;32;20158;-71
2024/01/06 03:27:11;;;;;;;33.67;23.58;;;;;;;7.95;65.89;98806.38;4458819;32;20167;-71
2024/01/06 03:29:40;;;;;;;30.58;22.00;;;;;;;7.70;66.88;98804.75;4459568;32;20159;-71
2024/01/06 03:32:16;;;;;;;31.10;24.08;;;;;;;8.04;65.68;98809.16;4453006;32;20174;-71
2024/01/06 03:34:45;;;;;;;34.05;23.67;;;;;;;8.13;65.48;98803.16;4459723;32;20520;-71
2024/01/06 03:37:15;;;;;;;35.25;23.85;;;;;;;7.58;67.11;98802.06;4457853;32;20168;-71
2024/01/06 03:39:49;;;;;;;28.08;21.67;;;;;;;8.05;65.87;98807.34;4455426;32;20151;-71
2024/01/06 03:42:19;;;;;;;32.22;22.62;;;;;;;8.05;65.75;98812.63;4449904;32;20163;-71
2024/01/06 03:44:49;;;;;;;35.13;24.45;;;;;;;7.81;66.55;98818.81;4455508;32;20158;-71
2024/01/06 03:47:20;;;;;;;30.50;21.85;;;;;;;7.79;66.54;98820.69;4455457;32;20175;-71
2024/01/06 03:49:49;;;;;;;31.42;21.20;;;;;;;8.07;65.78;98818.63;4455341;32;20163;-71
2024/01/06 03:52:18;;;;;;;30.85;24.10;;;;;;;8.23;65.08;98837.59;4449072;32;20437;-71
2024/01/06 03:54:51;;;;;;;32.92;23.87;;;;;;;7.84;66.32;98849.41;4458580;32;20156;-71
2024/01/06 03:57:21;;;;;;;27.83;22.02;;;;;;;7.62;67.25;98856.25;4459551;32;20132;-71
2024/01/06 03:59:51;;;;;;;36.88;26.17;;;;;;;7.96;66.37;98859.03;4457946;32;20188;-71
2024/01/06 04:02:23;;;;;;;31.52;22.87;;;;;;;7.60;68.01;98850.25;4449212;32;20160;-71
2024/01/06 04:04:53;;;;;;;32.05;23.00;;;;;;;7.81;67.81;98829.34;4453731;32;20603;-71
2024/01/06 04:07:22;;;;;;;34.10;24.00;;;;;;;8.14;66.82;98833.03;4455139;32;20164;-71
2024/01/06 04:09:52;;;;;;;36.40;23.50;;;;;;;7.58;68.50;98831.06;4455040;32;20136;-71
2024/01/06 04:12:21;;;;;;;35.10;24.45;;;;;;;7.77;68.11;98833.19;4449057;32;20160;-71
2024/01/06 04:14:51;;;;;;;31.23;24.23;;;;;;;7.84;68.10;98839.69;4455119;32;20184;-71
2024/01/06 04:17:23;;;;;;;32.53;23.60;;;;;;;7.83;67.88;98864.34;4453547;32;20750;-72
2024/01/06 04:19:53;;;;;;;;;;;;;;;7.63;69.02;98857.91;4455387;32;20416;-71
2024/01/06 04:22:21;;;;;;;31.10;23.70;;;;;;;7.85;68.80;98866.88;4434008;32;20035;-71
2024/01/06 04:24:52;;;;;;;34.08;25.95;;;;;;;7.87;68.74;98862.31;4455204;32;20175;-72
2024/01/06 04:27:21;;;;;;;38.60;28.10;;;;;;;7.77;69.32;98859.53;4458552;32;20136;-72
2024/01/06 04:29:52;;;;;;;35.95;27.00;;;;;;;7.69;69.85;98855.81;4454789;32;20160;-72
2024/01/06 04:32:25;;;;;;;33.90;26.35;;;;;;;8.08;68.71;98852.81;4448141;32;20222;-72
2024/01/06 04:34:54;;;;;;;38.83;27.23;;;;;;;7.56;70.61;98859.34;4452084;32;20164;-72
2024/01/06 04:37:23;;;;;;;34.25;26.02;;;;;;;7.76;70.13;98849.09;4451931;32;20168;-72
2024/01/06 04:39:53;;;;;;;35.67;27.23;;;;;;;7.67;70.33;98842.72;4452073;32;20156;-72
2024/01/06 04:42:23;;;;;;;35.63;25.35;;;;;;;7.51;71.25;98843.00;4446163;32;20168;-72
2024/01/06 04:44:53;;;;;;;28.92;22.25;;;;;;;7.86;70.29;98850.94;4451916;32;20186;-72
2024/01/06 04:47:25;;;;;;;33.88;24.12;;;;;;;8.25;68.82;98843.63;4451819;32;20143;-72
2024/01/06 04:49:55;;;;;;;34.50;25.45;;;;;;;7.99;69.70;98842.09;4452208;32;20163;-72
2024/01/06 04:52:24;;;;;;;38.55;26.92;;;;;;;7.66;71.07;98835.75;4452285;32;20175;-72
2024/01/06 04:54:55;;;;;;;33.35;26.35;;;;;;;7.97;70.26;98831.69;4452244;32;20164;-71
2024/01/06 04:57:24;;;;;;;31.40;26.65;;;;;;;8.16;69.41;98827.63;4451821;32;20144;-71
2024/01/06 04:59:54;;;;;;;34.03;24.23;;;;;;;7.67;71.40;98836.59;4452510;32;20136;-72
2024/01/06 05:02:34;;;;;;;34.53;26.35;;;;;;;7.89;70.24;98837.53;4445193;32;20540;-71
2024/01/06 05:05:04;;;;;;;37.72;26.48;;;;;;;7.97;69.98;98828.22;4451914;32;20751;-71
2024/01/06 05:07:33;;;;;;;31.52;25.77;;;;;;;7.83;70.83;98823.94;4451872;32;20160;-71
2024/01/06 05:10:03;;;;;;;31.12;24.85;;;;;;;7.61;71.56;98817.66;4451348;32;20153;-71
2024/01/06 05:12:39;;;;;;;33.15;24.00;;;;;;;7.85;70.66;98817.63;4446263;32;20155;-71
2024/01/06 05:15:10;;;;;;;37.53;26.48;;;;;;;8.00;70.27;98815.62;4451838;32;20175;-71
2024/01/06 05:17:39;;;;;;;31.40;22.48;;;;;;;7.63;71.79;98814.91;4451542;32;20448;-71
2024/01/06 05:20:09;;;;;;;33.38;25.40;;;;;;;8.17;69.93;98802.94;4450479;32;20147;-71
2024/01/06 05:22:41;;;;;;;33.08;23.70;;;;;;;8.00;70.28;98818.25;4447029;32;20163;-72
2024/01/06 05:25:17;;;;;;;34.55;26.15;;;;;;;7.94;70.82;98815.25;4451628;32;20176;-71
2024/01/06 05:27:46;;;;;;;29.92;24.10;;;;;;;7.80;71.24;98816.25;4451596;32;20169;-71
2024/01/06 05:30:15;;;;;;;29.48;23.20;;;;;;;8.04;70.71;98817.06;4450303;32;20155;-71
2024/01/06 05:32:44;;;;;;;36.08;24.67;;;;;;;7.96;71.13;98831.78;4447259;32;20148;-71
2024/01/06 05:35:14;;;;;;;37.22;26.52;;;;;;;7.71;71.78;98832.78;4451590;32;20167;-71
2024/01/06 05:37:43;;;;;;;37.15;27.10;;;;;;;7.89;71.14;98832.25;4451546;32;20167;-71
2024/01/06 05:40:12;;;;;;;38.75;25.08;;;;;;;7.59;72.36;98832.72;4449861;32;20178;-72
2024/01/06 05:42:43;;;;;;;33.50;26.00;;;;;;;8.22;70.40;98835.91;4446993;32;20183;-71
2024/01/06 05:45:13;;;;;;;35.03;24.63;;;;;;;8.32;70.03;98830.78;4451804;32;20164;-71
2024/01/06 05:47:45;;;;;;;34.92;24.58;;;;;;;8.00;70.97;98838.50;4451337;32;20210;-72
2024/01/06 05:50:16;;;;;;;29.92;23.58;;;;;;;7.49;73.06;98854.62;4449712;32;20546;-72
2024/01/06 05:52:47;;;;;;;34.97;26.30;;;;;;;7.94;71.69;98853.00;4447606;32;20148;-72
2024/01/06 05:55:16;;;;;;;38.10;25.23;;;;;;;8.12;70.85;98850.78;4451252;32;20163;-72
2024/01/06 05:57:47;;;;;;;32.70;22.00;;;;;;;7.67;72.49;98850.63;4451350;32;20156;-72
2024/01/06 06:00:17;;;;;;;27.25;24.25;;;;;;;8.11;71.29;98852.56;4449725;32;20176;-72
2024/01/06 06:02:48;;;;;;;38.38;24.40;;;;;;;8.08;71.17;98844.91;4447372;32;20163;-72
2024/01/06 06:05:16;;;;;;;35.63;25.20;;;;;;;7.84;72.36;98838.84;4451395;32;20156;-72
2024/01/06 06:07:46;;;;;;;35.05;24.42;;;;;;;7.92;72.33;98838.25;4451300;32;20152;-72
2024/01/06 06:10:15;;;;;;;38.40;25.27;;;;;;;7.74;72.85;98838.66;4449559;32;20175;-72
2024/01/06 06:12:46;;;;;;;30.80;24.00;;;;;;;7.63;73.72;98842.09;4447151;32;20227;-71
2024/01/06 06:15:16;;;;;;;30.75;25.02;;;;;;;7.37;74.31;98837.91;4451622;32;20140;-72
2024/01/06 06:17:48;;;;;;;33.47;24.70;;;;;;;7.75;73.34;98831.59;4451018;32;20463;-72
2024/01/06 06:20:17;;;;;;;31.62;25.17;;;;;;;7.38;74.41;98839.59;4449077;32;20197;-71
2024/01/06 06:22:46;;;;;;;33.28;24.42;;;;;;;7.68;73.75;98854.09;4447156;32;20151;-71
2024/01/06 06:25:15;;;;;;;38.20;26.70;;;;;;;7.24;75.39;98843.22;4451055;32;20528;-71
2024/01/06 06:27:50;;;;;;;36.42;23.95;;;;;;;7.14;75.92;98836.94;4451143;32;20215;-72
2024/01/06 06:30:19;;;;;;;31.62;24.20;;;;;;;7.07;76.19;98841.81;4448012;32;20231;-72
2024/01/06 06:32:48;;;;;;;33.95;24.50;;;;;;;7.41;75.09;98834.09;4447396;32;20163;-72
2024/01/06 06:35:17;;;;;;;36.88;25.75;;;;;;;7.34;75.14;98825.81;4451109;32;20524;-72
2024/01/06 06:37:47;;;;;;;31.65;25.27;;;;;;;7.71;73.73;98816.97;4450993;32;20176;-72
2024/01/06 06:40:19;;;;;;;33.60;26.62;;;;;;;7.73;73.81;98822.97;4449149;32;20156;-72
2024/01/06 06:42:49;;;;;;;31.52;25.75;;;;;;;7.45;74.77;98825.03;4447273;32;20152;-71
2024/01/06 06:45:22;;;;;;;36.25;26.92;;;;;;;7.35;74.91;98834.53;4451335;32;20155;-72
2024/01/06 06:47:51;;;;;;;33.10;24.87;;;;;;;7.46;74.56;98837.25;4450754;32;20179;-71
2024/01/06 06:50:21;;;;;;;31.10;22.92;;;;;;;7.64;73.60;98833.25;4448606;32;20168;-71
2024/01/06 06:52:50;;;;;;;29.77;23.75;;;;;;;7.47;74.69;98836.28;4446549;32;20536;-71
2024/01/06 06:55:19;;;;;;;30.65;23.08;;;;;;;7.66;73.87;98840.19;4450779;32;20151;-71
2024/01/06 06:57:50;;;;;;;32.88;23.58;;;;;;;8.04;72.60;98830.25;4450674;32;20183;-71
2024/01/06 07:00:21;;;;;;;31.87;21.85;;;;;;;7.62;73.76;98832.50;4448619;32;20492;-72
2024/01/06 07:02:51;;;;;;;32.35;22.70;;;;;;;7.93;72.98;98827.59;4446962;32;20176;-72
2024/01/06 07:05:20;;;;;;;28.90;23.40;;;;;;;7.55;74.39;98827.81;4450882;32;20159;-71
2024/01/06 07:07:49;;;;;;;31.62;22.85;;;;;;;7.72;73.58;98823.91;4450675;32;20160;-72
2024/01/06 07:10:18;;;;;;;30.65;20.77;;;;;;;7.74;73.66;98817.56;4448591;32;20178;-72
2024/01/06 07:12:48;;;;;;;29.42;22.37;;;;;;;7.93;72.95;98816.22;4446879;32;20156;-71
2024/01/06 07:15:23;;;;;;;26.05;21.15;;;;;;;8.23;71.77;98810.38;4451014;32;20187;-72
2024/01/06 07:17:57;;;;;;;26.92;21.33;;;;;;;7.82;73.37;98824.91;4450292;32;20175;-72
2024/01/06 07:20:26;;;;;;;40.35;21.92;;;;;;;8.03;72.51;98812.72;4449188;32;20160;-72
2024/01/06 07:22:56;;;;;;;26.25;19.98;;;;;;;7.95;73.14;98822.19;4450528;32;20803;-72
2024/01/06 07:25:25;;;;;;;32.58;22.52;;;;;;;8.36;71.75;98819.87;4450502;32;20163;-72
2024/01/06 07:27:54;;;;;;;29.85;22.13;;;;;;;8.08;72.48;98829.06;4449123;32;20546;-72
2024/01/06 07:30:25;;;;;;;30.05;20.90;;;;;;;8.32;72.06;98834.28;4448105;32;20169;-72
2024/01/06 07:33:00;;;;;;;28.10;20.83;;;;;;;8.55;71.30;98823.75;4447074;32;20183;-72
2024/01/06 07:35:29;;;;;;;29.42;19.92;;;;;;;8.74;70.85;98817.88;4450289;32;20168;-72
2024/01/06 07:37:58;;;;;;;25.35;20.95;;;;;;;8.96;70.08;98814.38;4450288;32;20253;-72
2024/01/06 07:40:27;;;;;;;29.50;20.33;;;;;;;8.90;69.98;98820.97;4448745;32;20172;-72
2024/01/06 07:43:00;;;;;;;27.70;19.77;;;;;;;8.76;70.54;98806.22;4450630;32;20168;-72
2024/01/06 07:45:31;;;;;;;25.77;19.60;;;;;;;9.10;69.66;98812.28;4450032;32;20775;-72
2024/01/06 07:48:01;;;;;;;26.20;20.20;;;;;;;9.05;69.73;98813.63;4450478;32;20184;-72
2024/01/06 07:50:30;;;;;;;26.58;20.45;;;;;;;9.08;69.81;98810.75;4446844;32;20172;-72
2024/01/06 07:52:59;;;;;;;28.95;21.35;;;;;;;9.43;77.44;98813.16;4447968;32;20160;-72
2024/01/06 07:55:29;;;;;;;28.30;19.75;;;;;;;9.79;76.07;98809.28;4450061;32;20160;-72
2024/01/06 07:57:58;;;;;;;28.67;20.15;;;;;;;9.32;72.80;98807.91;4450031;32;20163;-72
2024/01/06 08:00:31;;;;;;;27.60;20.50;;;;;;;9.55;72.42;98808.69;4447577;32;20168;-72
2024/01/06 08:03:05;;;;;;;27.20;20.65;;;;;;;10.19;72.50;98802.44;4447930;32;20167;-72
2024/01/06 08:05:35;;;;;;;31.98;19.80;;;;;;;10.32;68.48;98806.59;4452162;32;20143;-72
2024/01/06 08:08:05;;;;;;;28.50;21.17;;;;;;;10.12;66.42;98807.41;4452068;32;20179;-72
2024/01/06 08:10:34;;;;;;;26.20;20.12;;;;;;;10.37;64.95;98803.53;4448373;32;20176;-72
2024/01/06 08:13:03;;;;;;;25.73;19.00;;;;;;;10.25;65.26;98799.28;4449934;32;20180;-72
2024/01/06 08:15:34;;;;;;;24.37;17.95;;;;;;;10.09;65.46;98795.28;4452026;32;20521;-72
2024/01/06 08:18:05;;;;;;;25.75;17.85;;;;;;;9.82;66.24;98798.47;4452386;32;20140;-73
2024/01/06 08:20:35;;;;;;;29.60;19.90;;;;;;;9.55;67.19;98798.94;4447860;32;20806;-72
2024/01/06 08:23:04;;;;;;;25.60;19.95;;;;;;;9.43;67.58;98804.41;4449562;32;20984;-72
2024/01/06 08:25:33;;;;;;;24.60;19.60;;;;;;;9.04;68.78;98809.31;4452123;32;20176;-72
2024/01/06 08:28:02;;;;;;;23.70;19.87;;;;;;;8.81;69.89;98811.13;4451840;32;20160;-72
2024/01/06 08:30:32;;;;;;;30.88;20.25;;;;;;;8.96;69.73;98812.56;4450665;32;20179;-73
2024/01/06 08:33:02;;;;;;;24.70;22.00;;;;;;;8.61;70.12;98807.44;4453033;32;20159;-72
2024/01/06 08:35:31;;;;;;;26.70;19.55;;;;;;;9.09;69.30;98815.91;4451915;32;20187;-72
2024/01/06 08:38:01;;;;;;;33.90;27.13;;;;;;;8.88;70.16;98820.25;4451752;32;20183;-72
2024/01/06 08:40:30;;;;;;;27.23;22.67;;;;;;;9.05;69.45;98822.38;4448599;32;20168;-72
2024/01/06 08:42:59;;;;;;;26.20;18.67;;;;;;;8.73;70.65;98818.84;4449209;32;20607;-72
2024/01/06 08:45:30;;;;;;;30.98;22.13;;;;;;;8.20;72.59;98819.37;4452040;32;20132;-71
2024/01/06 08:47:59;;;;;;;28.57;22.97;;;;;;;8.42;71.94;98825.66;4452319;32;20167;-72
2024/01/06 08:50:30;;;;;;;23.48;17.77;;;;;;;8.26;72.54;98812.78;4448897;32;20180;-72
2024/01/06 08:52:59;;;;;;;23.27;18.50;;;;;;;8.39;72.33;98816.16;4449210;32;20167;-72
2024/01/06 08:55:29;;;;;;;23.80;18.45;;;;;;;7.86;74.58;98819.28;4451658;32;20164;-72
2024/01/06 08:57:58;;;;;;;23.65;18.50;;;;;;;7.89;74.27;98823.50;4451606;32;20148;-72
2024/01/06 09:00:28;;;;;;;22.40;17.02;;;;;;;7.74;74.51;98827.28;4444171;32;140029;-72
2024/01/06 09:02:57;;;;;;;28.30;18.92;;;;;;;7.69;75.34;98826.81;4445275;32;20151;-72
2024/01/06 09:05:26;;;;;;;24.92;21.00;;;;;;;7.76;75.08;98820.09;4445515;32;20163;-72
2024/01/06 09:07:56;;;;;;;27.62;20.52;;;;;;;7.98;74.64;98820.16;4451703;32;20175;-72
2024/01/06 09:10:26;;;;;;;27.70;19.35;;;;;;;8.00;74.65;98817.41;4448813;32;20445;-72
2024/01/06 09:12:57;;;;;;;23.73;18.52;;;;;;;7.68;75.99;98814.53;4448531;32;20184;-72
2024/01/06 09:15:29;;;;;;;29.52;19.90;;;;;;;7.59;76.44;98824.81;4450984;32;20437;-71
2024/01/06 09:17:59;;;;;;;26.50;21.35;;;;;;;7.73;75.31;98821.19;4452078;32;20187;-72
2024/01/06 09:20:28;;;;;;;24.10;17.87;;;;;;;7.99;74.49;98815.72;4448441;32;20156;-72
2024/01/06 09:22:59;;;;;;;23.27;18.00;;;;;;;8.16;73.90;98815.31;4448747;32;20144;-72
2024/01/06 09:25:28;;;;;;;28.27;17.70;;;;;;;8.19;73.81;98814.19;4451441;32;20155;-72
2024/01/06 09:27:58;;;;;;;27.20;19.35;;;;;;;8.65;72.19;98818.59;4451502;32;20183;-72
2024/01/06 09:30:28;;;;;;;24.33;19.95;;;;;;;8.54;72.42;98819.44;4451481;32;20180;-72
2024/01/06 09:32:57;;;;;;;22.58;16.35;;;;;;;8.42;72.32;98817.75;4449948;32;20532;-72
2024/01/06 09:35:27;;;;;;;21.52;17.55;;;;;;;8.51;72.40;98817.88;4451520;32;20155;-72
2024/01/06 09:37:56;;;;;;;23.08;19.58;;;;;;;8.34;72.57;98816.50;4451638;32;20155;-72
2024/01/06 09:40:27;;;;;;;23.85;17.25;;;;;;;8.33;72.98;98808.72;4451580;32;20183;-72
2024/01/06 09:42:57;;;;;;;19.60;17.37;;;;;;;8.54;72.75;98808.88;4451465;32;20140;-72
2024/01/06 09:45:26;;;;;;;30.20;24.85;;;;;;;8.40;72.78;98809.97;4451563;32;20184;-71
2024/01/06 09:47:56;;;;;;;23.80;17.37;;;;;;;8.55;72.69;98815.81;4451941;32;20187;-72
2024/01/06 09:50:27;;;;;;;23.42;17.20;;;;;;;8.75;72.03;98817.75;4448326;32;20552;-73
2024/01/06 09:53:05;;;;;;;23.92;18.12;;;;;;;8.77;72.02;98817.63;4448596;32;20160;-72
2024/01/06 09:55:36;;;;;;;22.10;17.20;;;;;;;8.83;71.71;98819.81;4451547;32;20182;-72
2024/01/06 09:58:06;;;;;;;22.92;16.92;;;;;;;8.73;72.01;98813.56;4451583;32;20185;-72
2024/01/06 10:00:37;;;;;;;25.65;17.92;;;;;;;8.17;74.25;98808.22;4452643;32;20159;-72
2024/01/06 10:03:07;;;;;;;33.20;24.12;;;;;;;8.58;72.72;98823.50;4451758;32;20520;-72
2024/01/06 10:05:36;;;;;;;38.97;29.58;;;;;;;8.17;73.93;98813.50;4451369;32;20461;-72
2024/01/06 10:08:06;;;;;;;30.85;22.77;;;;;;;8.45;73.11;98806.97;4451387;32;20163;-72
2024/01/06 10:10:38;;;;;;;32.75;24.35;;;;;;;7.96;74.57;98819.47;4447415;32;20168;-72
2024/01/06 10:13:08;;;;;;;47.67;30.45;;;;;;;8.26;74.01;98815.41;4449564;32;20159;-72
2024/01/06 10:15:37;;;;;;;29.15;20.48;;;;;;;8.10;74.70;98827.16;4451478;32;20717;-72
2024/01/06 10:18:06;;;;;;;32.33;26.75;;;;;;;8.15;74.56;98821.50;4451910;32;20179;-72
2024/01/06 10:20:36;;;;;;;44.45;29.98;;;;;;;7.93;75.51;98826.75;4447775;32;20192;-73
2024/01/06 10:23:06;;;;;;;58.65;42.30;;;;;;;8.07;75.36;98819.44;4449188;32;20195;-72
2024/01/06 10:25:37;;;;;;;33.10;25.48;;;;;;;8.00;75.35;98823.53;4450655;32;20168;-72
2024/01/06 10:28:06;;;;;;;32.55;25.12;;;;;;;8.14;75.26;98814.56;4451082;32;20153;-72
2024/01/06 10:30:39;;;;;;;28.92;21.73;;;;;;;8.16;75.31;98814.44;4447338;32;20223;-72
2024/01/06 10:33:13;;;;;;;34.53;20.83;;;;;;;8.59;73.90;98807.56;4449825;32;20178;-72
2024/01/06 10:35:44;;;;;;;34.75;22.50;;;;;;;8.83;72.77;98803.94;4451055;32;20516;-72
2024/01/06 10:38:13;;;;;;;53.70;38.63;;;;;;;8.53;73.80;98800.09;4451111;32;20156;-72
2024/01/06 10:40:57;;;;;;;52.72;37.63;;;;;;;8.70;73.44;98797.94;4446556;32;20164;-72
2024/01/06 10:43:28;;;;;;;62.70;50.30;;;;;;;8.60;74.20;98797.84;4444892;32;20170;-72
2024/01/06 10:45:59;;;;;;;36.75;32.78;;;;;;;8.75;73.77;98798.41;4451006;32;20164;-72
2024/01/06 10:48:33;;;;;;;28.38;24.70;;;;;;;8.69;74.16;98791.00;4451061;32;20147;-72
2024/01/06 10:51:07;;;;;;;37.42;28.05;;;;;;;8.84;73.28;98787.13;4445042;32;20195;-72
2024/01/06 10:53:39;;;;;;;33.47;26.35;;;;;;;9.09;72.59;98781.53;4450858;32;20152;-72
2024/01/06 10:56:10;;;;;;;30.23;25.12;;;;;;;8.81;73.61;98776.81;4453276;32;20163;-72
2024/01/06 10:58:47;;;;;;;30.52;24.33;;;;;;;8.81;74.22;98772.34;4453701;32;20185;-72
2024/01/06 11:01:21;;;;;;;27.00;22.25;;;;;;;9.09;73.36;98767.50;4444492;32;20287;-72
2024/01/06 11:03:56;;;;;;;24.05;18.87;;;;;;;8.77;74.41;98757.72;4450708;32;20190;-72
2024/01/06 11:06:26;;;;;;;29.02;17.62;;;;;;;8.82;73.77;98757.34;4451049;32;20472;-71
2024/01/06 11:09:16;;;;;;;23.58;17.00;;;;;;;9.00;73.86;98753.22;4451169;32;20182;-72
2024/01/06 11:11:47;;;;;;;22.50;16.73;;;;;;;9.18;73.15;98750.87;4444450;32;20198;-72
2024/01/06 11:14:21;;;;;;;35.78;25.90;;;;;;;8.88;74.13;98741.00;4450878;32;20187;-72
2024/01/06 11:16:56;;;;;;;32.20;26.67;;;;;;;9.34;72.71;98730.19;4450549;32;20184;-72
2024/01/06 11:19:49;;;;;;;35.33;27.33;;;;;;;8.80;74.50;98725.78;4450457;32;20188;-72
2024/01/06 11:22:19;;;;;;;25.40;21.33;;;;;;;9.21;73.47;98715.44;4444276;32;20160;-72
2024/01/06 11:24:49;;;;;;;24.73;21.27;;;;;;;9.09;73.91;98715.47;4450748;32;20760;-72
2024/01/06 11:27:22;;;;;;;18.70;16.70;;;;;;;9.18;73.24;98715.69;4450849;32;20156;-72
2024/01/06 11:29:52;;;;;;;;;;;;;;;8.91;74.05;98710.84;4450453;32;20167;-72
2024/01/06 11:32:27;;;;;;;22.55;17.33;;;;;;;9.19;73.41;98705.00;4444023;32;20047;-72
2024/01/06 11:35:06;;;;;;;25.23;18.02;;;;;;;9.31;73.16;98689.94;4450407;32;20159;-72
2024/01/06 11:37:38;;;;;;;20.00;16.65;;;;;;;9.53;72.31;98681.87;4450812;32;20171;-72
2024/01/06 11:40:13;;;;;;;32.20;20.33;;;;;;;9.52;71.91;98663.50;4451213;32;20152;-72
2024/01/06 11:42:46;;;;;;;22.33;17.02;;;;;;;9.14;73.77;98662.25;4447868;32;20528;-72